Independence, KS

2:41 AM CDT on June 24, 2017 (GMT -0500)
Independence Municipal

Weather History for KIDP - January, 2014

Change the Weather History Date:

Thursday, January 16, 2014

  Actual Average (KCFV) Record (KCFV)
Temperature  
Mean Temperature 42 °F -  
Max Temperature 51 °F 42 °F 72 °F (2012)
Min Temperature 32 °F 22 °F -9 °F (1997)
Degree Days  
Heating Degree Days 24    
Moisture  
Dew Point 23 °F    
Average Humidity 52    
Maximum Humidity 87    
Minimum Humidity 27    
Precipitation  
Precipitation 0.00 in - - ()
Sea Level Pressure  
Sea Level Pressure 29.97 in    
Wind  
Wind Speed 13 mph (WNW)    
Max Wind Speed 31 mph    
Max Gust Speed 41 mph    
Visibility 10 miles    
Events      
Averages and records for this station are not official NWS values.
T = Trace of Precipitation, MM = Missing Value Source: NWS Daily Summary

Daily Weather History Graph

Daily Weather History Graph

Search for Another Location

Airport or City:

Trip Planner

Search our weather history database for the weather conditions in past years. The results will help you decide how hot, cold, wet, or windy it might be!

Date:

Astronomy

Jan. 16, 2014 Rise Set
Actual Time 7:35 AM CST 5:30 PM CST
Civil Twilight 7:07 AM CST 5:59 PM CST
Nautical Twilight 6:35 AM CST 6:31 PM CST
Astronomical Twilight 6:03 AM CST 7:02 PM CST
Moon 6:21 PM CST (1/16) 7:31 AM CST (1/16)
Length of Visible Light 10h 51m
Length of Day
9h 55m
Full, 100% of the Moon is Illuminated
Jan 16
Full
Jan 23
Last Quarter
Jan 30
New
Feb 6
First Quarter
Feb 14
Full

Hourly Weather History & Observations

Time (CST) Temp. Windchill Dew Point Humidity Pressure Visibility Wind Dir Wind Speed Gust Speed Precip Events Conditions
12:15 AM 39.2 °F 34.2 °F 26.6 °F 61% 29.87 in 10.0 mi South 6.9 mph - N/A   Scattered Clouds
12:35 AM 39.2 °F 32.5 °F 26.6 °F 61% 29.86 in 10.0 mi SSW 10.4 mph - N/A   Scattered Clouds
12:55 AM 39.2 °F 32.5 °F 26.6 °F 61% 29.86 in 10.0 mi SSW 10.4 mph - N/A   Clear
1:15 AM 39.2 °F 32.5 °F 26.6 °F 61% 29.85 in 10.0 mi SSW 10.4 mph - N/A   Clear
1:35 AM 37.4 °F 30.8 °F 26.6 °F 65% 29.85 in 10.0 mi SSW 9.2 mph - N/A   Clear
1:55 AM 37.4 °F 32.1 °F 26.6 °F 65% 29.86 in 10.0 mi SW 6.9 mph - N/A   Clear
2:15 AM 35.6 °F 28.0 °F 26.6 °F 70% 29.86 in 10.0 mi SW 10.4 mph - N/A   Clear
2:35 AM 35.6 °F 30.7 °F 26.6 °F 70% 29.87 in 10.0 mi WSW 5.8 mph - N/A   Scattered Clouds
2:55 AM 35.6 °F 28.6 °F 26.6 °F 70% 29.87 in 10.0 mi WSW 9.2 mph - N/A   Scattered Clouds
3:15 AM 35.6 °F 28.6 °F 26.6 °F 70% 29.87 in 10.0 mi WSW 9.2 mph - N/A   Clear
3:35 AM 33.8 °F 27.0 °F 26.6 °F 75% 29.87 in 10.0 mi SW 8.1 mph - N/A   Clear
3:55 AM 32.0 °F 27.5 °F 24.8 °F 75% 29.87 in 10.0 mi SSW 4.6 mph - N/A   Clear
4:15 AM 33.8 °F 28.6 °F 26.6 °F 75% 29.88 in 10.0 mi WSW 5.8 mph - N/A   Clear
4:35 AM 32.0 °F 26.4 °F 26.6 °F 80% 29.87 in 10.0 mi West 5.8 mph - N/A   Clear
4:55 AM 33.8 °F - 26.6 °F 75% 29.87 in 10.0 mi Calm Calm - N/A   Clear
5:15 AM 33.8 °F 29.6 °F 26.6 °F 75% 29.88 in 10.0 mi WSW 4.6 mph - N/A   Clear
5:35 AM 32.0 °F 25.6 °F 26.6 °F 80% 29.88 in 10.0 mi West 6.9 mph - N/A   Clear
5:55 AM 33.8 °F 28.6 °F 26.6 °F 75% 29.89 in 10.0 mi WNW 5.8 mph - N/A   Clear
6:15 AM 33.8 °F 27.7 °F 28.4 °F 81% 29.88 in 10.0 mi WNW 6.9 mph - N/A   Clear
6:35 AM 32.0 °F 24.8 °F 28.4 °F 87% 29.91 in 10.0 mi WNW 8.1 mph - N/A   Clear
6:55 AM 33.8 °F 27.0 °F 28.4 °F 81% 29.91 in 10.0 mi WNW 8.1 mph - N/A   Clear
7:15 AM 33.8 °F 25.8 °F 28.4 °F 81% 29.92 in 10.0 mi WNW 10.4 mph - N/A   Clear
7:35 AM 33.8 °F 25.3 °F 28.4 °F 81% 29.94 in 10.0 mi NW 11.5 mph - N/A   Clear
7:55 AM 33.8 °F 26.4 °F 30.2 °F 87% 29.95 in 10.0 mi WNW 9.2 mph - N/A   Clear
8:15 AM 37.4 °F 31.4 °F 30.2 °F 75% 29.95 in 10.0 mi WNW 8.1 mph - N/A   Clear
8:35 AM 37.4 °F 30.3 °F 30.2 °F 75% 29.97 in 10.0 mi WNW 10.4 mph - N/A   Clear
8:55 AM 41.0 °F 33.9 °F 32.0 °F 70% 29.99 in 10.0 mi WNW 12.7 mph - N/A   Clear
9:15 AM 42.8 °F 35.8 °F 30.2 °F 61% 29.99 in 10.0 mi NW 13.8 mph 19.6 mph N/A   Clear
9:35 AM 46.4 °F 39.5 °F 30.2 °F 53% 30.00 in 10.0 mi NW 17.3 mph - N/A   Scattered Clouds
9:55 AM 46.4 °F 38.5 °F 28.4 °F 50% 30.00 in 10.0 mi NW 21.9 mph 26.5 mph N/A   Scattered Clouds
10:15 AM 48.2 °F - 28.4 °F 46% 30.01 in 10.0 mi NW 17.3 mph 28.8 mph N/A   Clear
10:35 AM 50.0 °F - 26.6 °F 40% 30.00 in 10.0 mi NW 23.0 mph 31.1 mph N/A   Clear
10:55 AM 50.0 °F - 24.8 °F 37% 30.01 in 10.0 mi NW 25.3 mph 38.0 mph N/A   Clear
11:15 AM 50.0 °F - 24.8 °F 37% 30.01 in 10.0 mi NW 25.3 mph 36.8 mph N/A   Clear
11:35 AM 50.0 °F - 23.0 °F 35% 30.00 in 10.0 mi NW 31.1 mph 39.1 mph N/A   Clear
11:55 AM 50.0 °F - 23.0 °F 35% 29.99 in 10.0 mi NW 29.9 mph 40.3 mph N/A   Clear
12:15 PM 50.0 °F - 21.2 °F 32% 29.99 in 10.0 mi NW 26.5 mph 41.4 mph N/A   Clear
12:35 PM 50.0 °F - 21.2 °F 32% 29.98 in 10.0 mi NW 25.3 mph 35.7 mph N/A   Clear
12:55 PM 50.0 °F - 19.4 °F 30% 29.97 in 10.0 mi NW 24.2 mph 34.5 mph N/A   Clear
1:15 PM 51.8 °F - 19.4 °F 28% 29.96 in 10.0 mi NW 24.2 mph 38.0 mph N/A   Clear
1:35 PM 51.8 °F - 19.4 °F 28% 29.95 in 10.0 mi NW 24.2 mph 36.8 mph N/A   Clear
1:55 PM 51.8 °F - 19.4 °F 28% 29.95 in 10.0 mi NW 24.2 mph 35.7 mph N/A   Clear
2:35 PM 51.8 °F - 19.4 °F 28% 29.95 in 10.0 mi NW 24.2 mph 29.9 mph N/A   Clear
2:55 PM 51.8 °F - 19.4 °F 28% 29.94 in 10.0 mi WNW 17.3 mph 26.5 mph N/A   Scattered Clouds
3:15 PM 51.8 °F - 19.4 °F 28% 29.94 in 10.0 mi WNW 20.7 mph 33.4 mph N/A   Mostly Cloudy
3:35 PM 50.0 °F - 19.4 °F 30% 29.95 in 10.0 mi WNW 21.9 mph 31.1 mph N/A   Mostly Cloudy
3:55 PM 50.0 °F - 19.4 °F 30% 29.95 in 10.0 mi WNW 24.2 mph 28.8 mph N/A   Scattered Clouds
4:15 PM 46.4 °F 39.2 °F 23.0 °F 40% 29.96 in 10.0 mi WNW 18.4 mph 39.1 mph N/A   Mostly Cloudy
4:35 PM 46.4 °F 40.1 °F 19.4 °F 34% 29.96 in 10.0 mi NW 15.0 mph 23.0 mph N/A   Scattered Clouds
4:55 PM 46.4 °F 40.1 °F 19.4 °F 34% 29.96 in 10.0 mi NW 15.0 mph 19.6 mph N/A   Clear
5:15 PM 46.4 °F 40.4 °F 19.4 °F 34% 29.96 in 10.0 mi WNW 13.8 mph 21.9 mph N/A   Scattered Clouds
5:35 PM 46.4 °F 40.1 °F 17.6 °F 32% 29.97 in 10.0 mi NW 15.0 mph 24.2 mph N/A   Scattered Clouds
5:55 PM 46.4 °F 39.0 °F 14.0 °F 27% 29.97 in 10.0 mi NW 19.6 mph 25.3 mph N/A   Scattered Clouds
6:15 PM 44.6 °F 37.8 °F 14.0 °F 29% 29.98 in 10.0 mi NW 15.0 mph 23.0 mph N/A   Scattered Clouds
6:35 PM 44.6 °F 35.5 °F 14.0 °F 29% 30.00 in 10.0 mi NW 25.3 mph 34.5 mph N/A   Scattered Clouds
6:55 PM 42.8 °F 35.4 °F 17.6 °F 36% 30.02 in 10.0 mi NNW 15.0 mph 25.3 mph N/A   Scattered Clouds
7:15 PM 42.8 °F 34.8 °F 19.4 °F 39% 30.03 in 10.0 mi NNW 17.3 mph 25.3 mph N/A   Scattered Clouds
7:35 PM 41.0 °F 33.1 °F 17.6 °F 39% 30.04 in 10.0 mi NNW 15.0 mph 21.9 mph N/A   Clear
7:55 PM 41.0 °F 33.5 °F 17.6 °F 39% 30.06 in 10.0 mi NNW 13.8 mph 20.7 mph N/A   Clear
8:15 PM 39.2 °F 30.5 °F 17.6 °F 42% 30.06 in 10.0 mi NW 16.1 mph 20.7 mph N/A   Clear
8:35 PM 37.4 °F 28.9 °F 17.6 °F 45% 30.07 in 10.0 mi NW 13.8 mph - N/A   Clear
8:55 PM 37.4 °F 28.2 °F 17.6 °F 45% 30.07 in 10.0 mi NW 16.1 mph 20.7 mph N/A   Clear
9:15 PM 37.4 °F 28.5 °F 17.6 °F 45% 30.08 in 10.0 mi NW 15.0 mph 24.2 mph N/A   Clear
9:35 PM 37.4 °F 27.8 °F 15.8 °F 41% 30.09 in 10.0 mi NW 17.3 mph 21.9 mph N/A   Clear
9:55 PM 35.6 °F 26.2 °F 17.6 °F 48% 30.10 in 10.0 mi NW 15.0 mph 23.0 mph N/A   Clear
10:15 PM 35.6 °F 24.5 °F 17.6 °F 48% 30.10 in 10.0 mi NNW 20.7 mph 26.5 mph N/A   Clear
10:35 PM 35.6 °F 25.2 °F 17.6 °F 48% 30.10 in 10.0 mi NW 18.4 mph 26.5 mph N/A   Clear
10:55 PM 35.6 °F 24.0 °F 19.4 °F 52% 30.12 in 10.0 mi North 23.0 mph 31.1 mph N/A   Clear
11:15 PM 33.8 °F 23.9 °F 19.4 °F 56% 30.14 in 10.0 mi North 15.0 mph 20.7 mph N/A   Clear
11:35 PM 32.0 °F 24.2 °F 19.4 °F 60% 30.14 in 10.0 mi NNW 9.2 mph - N/A   Scattered Clouds
11:55 PM 32.0 °F 20.1 °F 14.0 °F 48% 30.14 in 10.0 mi NNW 19.6 mph 24.2 mph N/A   Clear